Time;durP1;ratioP1;P1;durP2;ratioP2;P2;SDS_P1;SDS_P2;PMS_P1;PMS_P2;Temp;Humidity;BMP_temperature;BMP_pressure;BME280_temperature;BME280_humidity;BME280_pressure;Samples;Min_cycle;Max_cycle;Signal;HPM_P1;HPM_P2
2021/12/23 00:00:44;;;;;;;115.78;38.30;;;;;;;;;;4953154;28;20358;-66
2021/12/23 00:03:09;;;;;;;114.63;40.50;;;;;;;;;;4952650;28;20515;-66
2021/12/23 00:05:35;;;;;;;101.65;38.03;;;;;;;;;;4952245;28;20457;-66
2021/12/23 00:08:00;;;;;;;109.18;37.15;;;;;;;;;;4952018;28;20056;-66
2021/12/23 00:10:25;;;;;;;109.55;37.28;;;;;;;;;;4952001;28;20452;-67
2021/12/23 00:12:51;;;;;;;121.10;39.42;;;;;;;;;;4952082;28;20421;-66
2021/12/23 00:15:31;;;;;;;123.00;36.92;;;;;;;;;;4951994;28;20468;-66
2021/12/23 00:18:02;;;;;;;111.50;35.38;;;;;;;;;;4950477;28;20384;-66
2021/12/23 00:25:46;;;;;;;114.70;34.67;;;;;;;;;;4951751;28;20411;-67
2021/12/23 00:28:11;;;;;;;118.60;36.20;;;;;;;;;;4951353;28;20445;-71
2021/12/23 00:30:36;;;;;;;92.05;35.13;;;;;;;;;;4966604;28;20507;-66
2021/12/23 00:33:01;;;;;;;105.82;35.25;;;;;;;;;;4953119;28;20314;-67
2021/12/23 00:35:27;;;;;;;104.35;35.17;;;;;;;;;;4951773;28;20379;-66
2021/12/23 00:37:59;;;;;;;108.30;35.53;;;;;;;;;;4951641;28;20511;-67
2021/12/23 00:40:25;;;;;;;111.72;36.05;;;;;;;;;;4951375;28;20329;-67
2021/12/23 00:42:50;;;;;;;94.65;32.42;;;;;;;;;;4951210;28;20396;-66
2021/12/23 00:45:15;;;;;;;104.55;33.88;;;;;;;;;;4952116;28;20442;-66
2021/12/23 00:47:40;;;;;;;98.00;33.38;;;;;;;;;;4950810;28;20444;-66
2021/12/23 00:50:06;;;;;;;107.78;34.45;;;;;;;;;;4952709;28;20425;-66
2021/12/23 00:52:35;;;;;;;101.18;34.55;;;;;;;;;;4952795;28;20291;-66
2021/12/23 00:55:02;;;;;;;98.63;35.65;;;;;;;;;;4950677;28;20462;-66
2021/12/23 00:57:29;;;;;;;89.53;31.65;;;;;;;;;;4950978;28;20073;-67
2021/12/23 00:59:57;;;;;;;87.63;33.00;;;;;;;;;;4949847;28;20461;-68
2021/12/23 01:02:27;;;;;;;99.18;33.50;;;;;;;;;;4966350;28;20457;-66
2021/12/23 01:04:52;;;;;;;92.85;31.27;;;;;;;;;;4951273;28;20030;-67
2021/12/23 01:07:17;;;;;;;85.90;30.23;;;;;;;;;;4952564;28;20413;-66
2021/12/23 01:09:42;;;;;;;92.43;31.25;;;;;;;;;;4949899;28;20140;-66
2021/12/23 01:12:11;;;;;;;91.70;31.90;;;;;;;;;;4950764;28;20026;-67
2021/12/23 01:14:43;;;;;;;95.40;31.95;;;;;;;;;;4950674;28;20460;-66
2021/12/23 01:17:30;;;;;;;87.68;32.85;;;;;;;;;;4950608;28;20546;-68
2021/12/23 01:19:57;;;;;;;101.07;33.80;;;;;;;;;;4950893;28;20034;-66
2021/12/23 01:22:23;;;;;;;88.22;29.67;;;;;;;;;;4950673;28;20369;-69
2021/12/23 01:24:49;;;;;;;89.50;31.73;;;;;;;;;;4949303;28;20568;-66
2021/12/23 01:27:15;;;;;;;89.78;30.65;;;;;;;;;;4949025;28;20088;-68
2021/12/23 01:29:41;;;;;;;99.97;32.83;;;;;;;;;;4951101;28;20429;-66
2021/12/23 01:32:07;;;;;;;91.40;30.25;;;;;;;;;;4949070;28;20468;-66
2021/12/23 01:34:33;;;;;;;74.25;28.33;;;;;;;;;;4950904;28;20340;-66
2021/12/23 01:37:03;;;;;;;86.05;31.73;;;;;;;;;;4948978;28;20588;-68
2021/12/23 01:39:29;;;;;;;83.75;29.92;;;;;;;;;;4951649;28;20432;-66
2021/12/23 01:41:55;;;;;;;83.25;29.27;;;;;;;;;;4951723;28;20491;-66
2021/12/23 01:44:20;;;;;;;76.88;29.80;;;;;;;;;;4948921;28;20041;-67
2021/12/23 01:46:45;;;;;;;83.40;27.88;;;;;;;;;;4949830;28;20475;-66
2021/12/23 01:49:11;;;;;;;82.40;30.70;;;;;;;;;;4951100;28;20421;-66
2021/12/23 01:51:37;;;;;;;80.80;29.05;;;;;;;;;;4949516;28;20481;-68
2021/12/23 01:54:02;;;;;;;70.53;25.73;;;;;;;;;;4949404;28;20057;-66
2021/12/23 01:56:28;;;;;;;75.25;27.13;;;;;;;;;;4950048;28;20333;-67
2021/12/23 01:58:53;;;;;;;86.43;26.88;;;;;;;;;;4948622;28;20369;-66
2021/12/23 02:01:19;;;;;;;85.75;28.95;;;;;;;;;;4949139;28;20061;-66
2021/12/23 02:03:44;;;;;;;72.03;27.27;;;;;;;;;;4948681;28;20449;-66
2021/12/23 02:06:10;;;;;;;77.15;25.55;;;;;;;;;;4950330;28;20417;-67
2021/12/23 02:08:36;;;;;;;72.65;26.98;;;;;;;;;;4950575;28;20488;-66
2021/12/23 02:11:04;;;;;;;71.18;26.83;;;;;;;;;;4948459;28;20433;-66
2021/12/23 02:13:29;;;;;;;61.97;25.90;;;;;;;;;;4949717;28;20088;-67
2021/12/23 02:15:54;;;;;;;78.20;25.40;;;;;;;;;;4950542;28;20030;-66
2021/12/23 02:18:21;;;;;;;68.00;24.83;;;;;;;;;;4950847;28;20345;-66
2021/12/23 02:20:46;;;;;;;70.63;26.13;;;;;;;;;;4949031;28;20315;-66
2021/12/23 02:23:11;;;;;;;69.05;23.63;;;;;;;;;;4949029;28;20309;-67
2021/12/23 02:25:37;;;;;;;65.88;24.17;;;;;;;;;;4950937;28;20460;-67
2021/12/23 02:28:07;;;;;;;68.05;23.10;;;;;;;;;;4949415;28;20460;-66
2021/12/23 02:30:36;;;;;;;67.38;23.13;;;;;;;;;;4950060;28;20460;-66
2021/12/23 02:33:03;;;;;;;70.43;24.63;;;;;;;;;;4948110;28;20113;-67
2021/12/23 02:35:28;;;;;;;64.35;21.90;;;;;;;;;;4950192;28;20341;-66
2021/12/23 02:37:53;;;;;;;63.85;23.02;;;;;;;;;;4948200;28;20100;-68
2021/12/23 02:40:40;;;;;;;67.93;22.20;;;;;;;;;;4948650;28;20022;-70
2021/12/23 02:43:10;;;;;;;59.95;22.73;;;;;;;;;;4949444;28;20029;-66
2021/12/23 02:45:35;;;;;;;51.35;20.60;;;;;;;;;;4949128;28;20417;-66
2021/12/23 02:48:01;;;;;;;51.08;20.48;;;;;;;;;;4964681;28;20168;-66
2021/12/23 02:50:26;;;;;;;54.13;22.05;;;;;;;;;;4949917;28;20412;-67
2021/12/23 02:52:52;;;;;;;60.83;22.70;;;;;;;;;;4949541;28;20506;-66
2021/12/23 02:55:18;;;;;;;61.55;23.38;;;;;;;;;;4948182;28;20030;-66
2021/12/23 02:57:43;;;;;;;54.85;21.08;;;;;;;;;;4949477;28;20092;-67
2021/12/23 03:00:09;;;;;;;64.78;21.45;;;;;;;;;;4948250;28;20041;-66
2021/12/23 03:02:37;;;;;;;58.83;20.45;;;;;;;;;;4949576;28;20484;-66
2021/12/23 03:05:02;;;;;;;62.88;23.17;;;;;;;;;;4952475;28;20096;-67
2021/12/23 03:07:28;;;;;;;54.15;21.92;;;;;;;;;;4953693;28;20441;-66
2021/12/23 03:09:53;;;;;;;51.25;20.92;;;;;;;;;;4954039;28;20433;-66
2021/12/23 03:12:18;;;;;;;51.75;20.00;;;;;;;;;;4968212;28;20441;-67
2021/12/23 03:14:44;;;;;;;56.63;20.58;;;;;;;;;;4951281;28;20349;-67
2021/12/23 03:17:09;;;;;;;51.22;22.20;;;;;;;;;;4953364;28;20349;-66
2021/12/23 03:19:34;;;;;;;49.63;19.48;;;;;;;;;;4952898;28;20425;-67
2021/12/23 03:22:00;;;;;;;56.92;20.42;;;;;;;;;;4951178;28;20425;-66
2021/12/23 03:24:25;;;;;;;52.33;19.63;;;;;;;;;;4952963;28;20397;-68
2021/12/23 03:26:51;;;;;;;57.35;21.17;;;;;;;;;;4967923;28;20433;-69
2021/12/23 03:29:16;;;;;;;47.53;20.33;;;;;;;;;;4967649;28;20573;-66
2021/12/23 03:31:42;;;;;;;46.85;19.40;;;;;;;;;;4951191;28;20065;-66
2021/12/23 03:34:07;;;;;;;51.70;19.73;;;;;;;;;;4953056;28;20337;-69
2021/12/23 03:36:32;;;;;;;48.10;19.40;;;;;;;;;;4953952;28;20030;-66
2021/12/23 03:38:58;;;;;;;52.75;18.35;;;;;;;;;;4953081;28;20056;-67
2021/12/23 03:41:23;;;;;;;44.35;18.00;;;;;;;;;;4952734;28;20030;-66
2021/12/23 03:43:48;;;;;;;46.75;18.27;;;;;;;;;;4952722;28;20325;-66
2021/12/23 03:46:14;;;;;;;53.20;18.55;;;;;;;;;;4953006;28;20417;-66
2021/12/23 03:48:39;;;;;;;46.17;18.63;;;;;;;;;;4952404;28;20384;-66
2021/12/23 03:51:05;;;;;;;57.45;20.25;;;;;;;;;;4952573;28;20034;-66
2021/12/23 03:53:30;;;;;;;55.35;19.02;;;;;;;;;;4950795;28;20034;-66
2021/12/23 03:55:55;;;;;;;46.25;18.20;;;;;;;;;;4952446;28;20117;-66
2021/12/23 03:58:21;;;;;;;58.03;20.20;;;;;;;;;;4952191;28;20368;-67
2021/12/23 04:00:48;;;;;;;53.15;19.40;;;;;;;;;;4952984;28;20460;-66
2021/12/23 04:03:13;;;;;;;59.60;22.88;;;;;;;;;;4951490;28;20374;-67
2021/12/23 04:05:39;;;;;;;57.63;21.95;;;;;;;;;;4950683;28;20369;-66
2021/12/23 04:08:05;;;;;;;58.90;19.85;;;;;;;;;;4951624;28;20341;-66
2021/12/23 04:10:30;;;;;;;59.50;21.88;;;;;;;;;;4950910;28;20448;-66
2021/12/23 04:12:56;;;;;;;59.42;20.65;;;;;;;;;;4950746;28;20493;-66
2021/12/23 04:15:21;;;;;;;59.05;21.25;;;;;;;;;;4951929;28;20464;-66
2021/12/23 04:17:47;;;;;;;58.28;21.42;;;;;;;;;;4952637;28;20372;-66
2021/12/23 04:20:19;;;;;;;55.90;21.63;;;;;;;;;;4950000;28;20049;-66
2021/12/23 04:22:46;;;;;;;62.78;23.35;;;;;;;;;;4952168;28;20433;-66
2021/12/23 04:25:11;;;;;;;58.20;21.40;;;;;;;;;;4952309;28;20423;-66
2021/12/23 04:27:37;;;;;;;54.72;21.90;;;;;;;;;;4952106;28;20348;-67
2021/12/23 04:30:04;;;;;;;53.78;19.48;;;;;;;;;;4951401;28;20437;-66
2021/12/23 04:32:30;;;;;;;51.28;21.23;;;;;;;;;;4951495;28;20341;-66
2021/12/23 04:34:56;;;;;;;55.20;21.80;;;;;;;;;;4952709;28;20085;-67
2021/12/23 04:37:22;;;;;;;48.70;20.80;;;;;;;;;;4952417;28;20338;-67
2021/12/23 04:39:47;;;;;;;53.33;20.02;;;;;;;;;;4951544;28;20420;-66
2021/12/23 04:42:12;;;;;;;51.45;19.27;;;;;;;;;;4951185;28;20471;-67
2021/12/23 04:44:38;;;;;;;52.70;17.65;;;;;;;;;;4951589;28;20444;-66
2021/12/23 04:47:03;;;;;;;55.97;19.30;;;;;;;;;;4950660;28;20381;-66
2021/12/23 04:49:29;;;;;;;49.30;20.10;;;;;;;;;;4951573;28;20100;-66
2021/12/23 04:51:54;;;;;;;38.67;18.23;;;;;;;;;;4950068;28;20483;-67
2021/12/23 04:54:19;;;;;;;44.63;17.10;;;;;;;;;;4950867;28;20464;-66
2021/12/23 04:56:45;;;;;;;50.60;19.27;;;;;;;;;;4951868;28;20489;-67
2021/12/23 04:59:10;;;;;;;53.58;20.40;;;;;;;;;;4950913;28;20322;-66
2021/12/23 05:01:35;;;;;;;50.00;20.63;;;;;;;;;;4950928;28;20365;-66
2021/12/23 05:04:01;;;;;;;53.30;19.48;;;;;;;;;;4951816;28;20391;-66
2021/12/23 05:06:26;;;;;;;53.75;21.10;;;;;;;;;;4951080;28;20044;-66
2021/12/23 05:08:51;;;;;;;53.35;20.63;;;;;;;;;;4950242;28;20038;-67
2021/12/23 05:11:17;;;;;;;49.38;18.83;;;;;;;;;;4952865;28;20352;-66
2021/12/23 05:13:43;;;;;;;58.47;21.17;;;;;;;;;;4951106;28;20425;-66
2021/12/23 05:16:09;;;;;;;59.30;22.10;;;;;;;;;;4949928;28;20524;-66
2021/12/23 05:18:34;;;;;;;50.08;21.15;;;;;;;;;;4950953;28;20316;-67
2021/12/23 05:20:59;;;;;;;61.50;24.75;;;;;;;;;;4950875;28;20429;-70
2021/12/23 05:23:25;;;;;;;55.88;24.20;;;;;;;;;;4949171;28;20592;-66
2021/12/23 05:25:50;;;;;;;55.72;23.90;;;;;;;;;;4966112;28;20428;-66
2021/12/23 05:28:15;;;;;;;57.75;22.52;;;;;;;;;;4949178;28;20112;-66
2021/12/23 05:30:41;;;;;;;49.60;22.05;;;;;;;;;;4948692;28;20109;-67
2021/12/23 05:33:06;;;;;;;50.47;21.23;;;;;;;;;;4950527;28;20401;-66
2021/12/23 05:35:32;;;;;;;58.53;21.73;;;;;;;;;;4949581;28;20392;-67
2021/12/23 05:37:57;;;;;;;55.38;20.40;;;;;;;;;;4950329;28;20441;-66
2021/12/23 05:40:24;;;;;;;48.67;19.35;;;;;;;;;;4951660;28;20516;-66
2021/12/23 05:42:51;;;;;;;48.78;19.55;;;;;;;;;;4950157;28;20417;-67
2021/12/23 05:45:17;;;;;;;55.90;21.17;;;;;;;;;;4949830;28;20030;-66
2021/12/23 05:47:43;;;;;;;55.53;22.67;;;;;;;;;;4949735;28;20095;-66
2021/12/23 05:50:10;;;;;;;55.22;20.85;;;;;;;;;;4952207;28;20424;-67
2021/12/23 05:52:36;;;;;;;59.50;22.42;;;;;;;;;;4964897;28;20373;-66
2021/12/23 05:55:02;;;;;;;56.00;21.80;;;;;;;;;;4949081;28;20345;-66
2021/12/23 05:57:29;;;;;;;67.30;24.75;;;;;;;;;;4950267;28;20353;-66
2021/12/23 05:59:54;;;;;;;59.88;24.23;;;;;;;;;;4949896;28;20018;-66
2021/12/23 06:02:20;;;;;;;54.80;23.05;;;;;;;;;;4950308;28;20452;-66
2021/12/23 06:04:45;;;;;;;53.35;22.23;;;;;;;;;;4949819;28;20424;-66
2021/12/23 06:07:11;;;;;;;69.03;26.05;;;;;;;;;;4949791;28;20438;-66
2021/12/23 06:09:36;;;;;;;62.85;24.85;;;;;;;;;;4949876;28;20030;-67
2021/12/23 06:12:02;;;;;;;67.28;26.33;;;;;;;;;;4948694;28;20322;-67
2021/12/23 06:14:27;;;;;;;78.60;27.88;;;;;;;;;;4950386;28;20091;-66
2021/12/23 06:16:52;;;;;;;73.15;27.63;;;;;;;;;;4949771;28;20501;-66
2021/12/23 06:19:18;;;;;;;84.18;30.85;;;;;;;;;;4951574;28;20468;-67
2021/12/23 06:21:43;;;;;;;87.47;27.50;;;;;;;;;;4950408;28;20052;-66
2021/12/23 06:24:08;;;;;;;92.10;31.45;;;;;;;;;;4949817;28;20350;-66
2021/12/23 06:26:34;;;;;;;79.45;29.48;;;;;;;;;;4949751;28;20448;-70
2021/12/23 06:28:59;;;;;;;71.22;28.52;;;;;;;;;;4951144;28;20451;-66
2021/12/23 06:31:25;;;;;;;65.63;27.02;;;;;;;;;;4949302;28;20384;-70
2021/12/23 06:33:50;;;;;;;76.57;26.58;;;;;;;;;;4950293;28;20595;-66
2021/12/23 06:36:15;;;;;;;63.33;26.38;;;;;;;;;;4949288;28;20425;-66
2021/12/23 06:38:42;;;;;;;70.32;27.08;;;;;;;;;;4950817;28;20496;-66
2021/12/23 06:41:08;;;;;;;57.65;24.88;;;;;;;;;;4953917;28;20405;-67
2021/12/23 06:43:33;;;;;;;63.58;24.77;;;;;;;;;;4952316;28;20494;-68
2021/12/23 06:46:00;;;;;;;60.30;24.95;;;;;;;;;;4952832;28;20564;-66
2021/12/23 06:48:26;;;;;;;57.70;23.92;;;;;;;;;;4968305;28;20453;-68
2021/12/23 06:50:55;;;;;;;65.30;25.33;;;;;;;;;;4952362;28;20484;-66
2021/12/23 06:53:20;;;;;;;67.20;26.88;;;;;;;;;;4952488;28;20026;-67
2021/12/23 06:55:46;;;;;;;63.13;25.80;;;;;;;;;;4952190;28;20060;-66
2021/12/23 06:58:11;;;;;;;71.55;24.92;;;;;;;;;;4953205;28;20324;-66
2021/12/23 07:00:37;;;;;;;57.22;22.63;;;;;;;;;;4953555;28;20100;-66
2021/12/23 07:03:03;;;;;;;70.65;25.30;;;;;;;;;;4954507;28;20422;-66
2021/12/23 07:05:28;;;;;;;65.68;26.60;;;;;;;;;;4953140;28;20425;-66
2021/12/23 07:07:57;;;;;;;67.78;27.40;;;;;;;;;;4952995;28;20456;-66
2021/12/23 07:10:25;;;;;;;71.53;27.07;;;;;;;;;;4953290;28;20380;-66
2021/12/23 07:12:50;;;;;;;63.15;24.63;;;;;;;;;;4951387;28;20322;-67
2021/12/23 07:15:16;;;;;;;64.35;24.30;;;;;;;;;;4951595;28;20360;-67
2021/12/23 07:17:42;;;;;;;63.00;26.00;;;;;;;;;;4951517;28;20053;-66
2021/12/23 07:20:08;;;;;;;62.95;26.67;;;;;;;;;;4953172;28;20453;-66
2021/12/23 07:22:33;;;;;;;65.70;26.05;;;;;;;;;;4951573;28;20512;-66
2021/12/23 07:24:58;;;;;;;66.78;26.85;;;;;;;;;;4952946;28;20463;-66
2021/12/23 07:27:24;;;;;;;70.10;26.17;;;;;;;;;;4952815;28;20469;-66
2021/12/23 07:29:49;;;;;;;67.35;25.77;;;;;;;;;;4954582;28;20380;-67
2021/12/23 07:32:14;;;;;;;69.22;26.90;;;;;;;;;;4952513;28;20391;-68
2021/12/23 07:34:42;;;;;;;71.45;25.77;;;;;;;;;;4952237;28;20465;-66
2021/12/23 07:37:08;;;;;;;73.00;26.73;;;;;;;;;;4952512;28;20026;-66
2021/12/23 07:39:33;;;;;;;73.05;29.50;;;;;;;;;;4952998;28;20436;-66
2021/12/23 07:41:59;;;;;;;73.30;29.13;;;;;;;;;;4950751;28;20389;-66
2021/12/23 07:44:24;;;;;;;95.78;30.90;;;;;;;;;;4952505;28;20084;-66
2021/12/23 07:46:50;;;;;;;79.40;28.80;;;;;;;;;;4950795;28;20404;-67
2021/12/23 07:49:16;;;;;;;82.38;30.35;;;;;;;;;;4952124;28;20376;-66
2021/12/23 07:51:42;;;;;;;92.85;30.75;;;;;;;;;;4952494;28;20511;-66
2021/12/23 07:54:07;;;;;;;88.28;31.08;;;;;;;;;;4951308;28;20433;-66
2021/12/23 07:56:32;;;;;;;92.60;30.52;;;;;;;;;;4950907;28;20456;-66
2021/12/23 07:58:58;;;;;;;82.28;30.05;;;;;;;;;;4952688;28;20584;-66
2021/12/23 08:01:23;;;;;;;83.72;30.83;;;;;;;;;;4952123;28;20360;-66
2021/12/23 08:03:49;;;;;;;88.18;32.05;;;;;;;;;;4950823;28;20567;-67
2021/12/23 08:06:14;;;;;;;89.30;31.90;;;;;;;;;;4952349;28;20071;-66
2021/12/23 08:08:40;;;;;;;97.45;32.85;;;;;;;;;;4950471;28;20038;-66
2021/12/23 08:11:08;;;;;;;112.28;36.75;;;;;;;;;;4950428;28;20388;-67
2021/12/23 08:13:34;;;;;;;108.57;36.40;;;;;;;;;;4950457;28;20104;-66
2021/12/23 08:16:00;;;;;;;101.93;34.30;;;;;;;;;;4953311;28;20423;-67
2021/12/23 08:18:26;;;;;;;103.72;36.58;;;;;;;;;;4952286;28;20445;-68
2021/12/23 08:20:51;;;;;;;98.68;34.33;;;;;;;;;;4950467;28;20398;-69
2021/12/23 08:23:17;;;;;;;100.35;34.45;;;;;;;;;;4951263;28;20362;-66
2021/12/23 08:25:42;;;;;;;109.40;36.40;;;;;;;;;;4950486;28;20108;-66
2021/12/23 08:28:09;;;;;;;91.72;32.58;;;;;;;;;;4949961;28;20449;-66
2021/12/23 08:30:35;;;;;;;112.20;37.03;;;;;;;;;;4951649;28;20052;-66
2021/12/23 08:33:00;;;;;;;96.15;33.65;;;;;;;;;;4949881;28;20429;-67
2021/12/23 08:35:26;;;;;;;103.32;36.67;;;;;;;;;;4951458;28;20026;-66
2021/12/23 08:37:51;;;;;;;113.05;37.58;;;;;;;;;;4951202;28;20437;-66
2021/12/23 08:40:23;;;;;;;105.97;34.53;;;;;;;;;;4951695;28;20061;-66
2021/12/23 08:42:49;;;;;;;100.47;36.60;;;;;;;;;;4949725;28;20453;-66
2021/12/23 08:45:16;;;;;;;121.00;39.40;;;;;;;;;;4951078;28;20504;-66
2021/12/23 08:47:41;;;;;;;103.15;36.67;;;;;;;;;;4950262;28;20380;-67
2021/12/23 08:50:09;;;;;;;107.15;36.35;;;;;;;;;;4950814;28;20385;-66
2021/12/23 08:52:34;;;;;;;102.22;34.35;;;;;;;;;;4950600;28;20536;-66
2021/12/23 08:55:00;;;;;;;106.65;34.22;;;;;;;;;;4950025;28;20522;-69
2021/12/23 08:57:25;;;;;;;99.20;36.40;;;;;;;;;;4951537;28;20421;-66
2021/12/23 08:59:51;;;;;;;111.15;33.33;;;;;;;;;;4950961;28;20353;-66
2021/12/23 09:02:16;;;;;;;99.63;33.95;;;;;;;;;;4950148;28;20097;-66
2021/12/23 09:04:41;;;;;;;92.40;30.05;;;;;;;;;;4949598;28;20053;-66
2021/12/23 09:07:08;;;;;;;102.53;33.25;;;;;;;;;;4949710;28;20396;-66
2021/12/23 09:09:35;;;;;;;95.43;33.97;;;;;;;;;;4966139;28;20412;-66
2021/12/23 09:12:02;;;;;;;95.90;32.58;;;;;;;;;;4951207;28;20392;-66
2021/12/23 09:14:28;;;;;;;92.28;31.90;;;;;;;;;;4950628;28;20331;-66
2021/12/23 09:16:53;;;;;;;98.07;33.35;;;;;;;;;;4951295;28;20080;-68
2021/12/23 09:19:18;;;;;;;96.85;31.45;;;;;;;;;;4951901;28;20422;-66
2021/12/23 09:21:43;;;;;;;90.07;32.95;;;;;;;;;;4950697;28;20018;-67
2021/12/23 09:24:09;;;;;;;100.63;32.30;;;;;;;;;;4950593;28;20413;-66
2021/12/23 09:26:44;;;;;;;96.45;30.83;;;;;;;;;;4950419;28;20099;-66
2021/12/23 09:35:00;;;;;;;99.63;31.02;;;;;;;;;;4910093;28;20593;-67
2021/12/23 09:37:26;;;;;;;101.20;31.92;;;;;;;;;;4934859;28;20433;-67
2021/12/23 09:39:54;;;;;;;87.72;31.33;;;;;;;;;;4949100;28;20429;-66
2021/12/23 09:42:25;;;;;;;93.07;30.67;;;;;;;;;;4951634;28;20376;-66
2021/12/23 09:44:53;;;;;;;88.70;29.52;;;;;;;;;;4950238;28;20361;-66
2021/12/23 09:47:19;;;;;;;76.20;31.40;;;;;;;;;;4948595;28;20153;-66
2021/12/23 09:49:48;;;;;;;98.47;32.10;;;;;;;;;;4949110;28;20471;-66
2021/12/23 09:52:13;;;;;;;88.70;31.05;;;;;;;;;;4949179;28;20333;-66
2021/12/23 09:54:41;;;;;;;86.75;28.63;;;;;;;;;;4949028;28;20510;-67
2021/12/23 09:57:07;;;;;;;76.90;27.10;;;;;;;;;;4950867;28;20116;-67
2021/12/23 09:59:32;;;;;;;79.20;29.50;;;;;;;;;;4950308;28;20445;-66
2021/12/23 10:01:57;;;;;;;87.65;30.10;;;;;;;;;;4949127;28;20053;-66
2021/12/23 10:04:23;;;;;;;82.70;27.50;;;;;;;;;;4950298;28;20449;-66
2021/12/23 10:06:50;;;;;;;66.38;25.70;;;;;;;;;;4948797;28;20108;-67
2021/12/23 10:09:33;;;;;;;70.22;25.85;;;;;;;;;;4950509;28;20451;-66
2021/12/23 10:12:58;;;;;;;72.88;28.50;;;;;;;;;;4949003;28;20338;-66
2021/12/23 10:31:29;;;;;;;66.72;25.35;;;;;;;;;;4949831;28;20443;-68
2021/12/23 10:37:22;;;;;;;67.30;24.50;;;;;;;;;;4936851;28;20068;-66
2021/12/23 10:40:03;;;;;;;72.93;24.05;;;;;;;;;;4950796;28;20048;-66
2021/12/23 10:42:29;;;;;;;65.45;23.83;;;;;;;;;;4950015;28;20061;-66
2021/12/23 10:45:00;;;;;;;57.50;22.55;;;;;;;;;;4948723;28;20532;-66
2021/12/23 10:47:28;;;;;;;62.92;23.02;;;;;;;;;;4947832;28;20479;-67
2021/12/23 10:49:59;;;;;;;59.10;21.45;;;;;;;;;;4949905;28;20360;-66
2021/12/23 10:52:29;;;;;;;62.85;22.90;;;;;;;;;;4948299;28;20129;-66
2021/12/23 11:00:42;;;;;;;64.65;22.35;;;;;;;;;;4950323;28;20056;-67
2021/12/23 11:03:13;;;;;;;61.65;21.30;;;;;;;;;;4949575;28;20500;-66
2021/12/23 11:05:46;;;;;;;56.40;21.00;;;;;;;;;;4950059;28;20433;-67
2021/12/23 11:38:11;;;;;;;55.30;19.77;;;;;;;;;;4953294;28;20428;-66
2021/12/23 11:40:51;;;;;;;47.13;17.80;;;;;;;;;;4951865;28;20394;-67
2021/12/23 11:45:50;;;;;;;51.28;18.75;;;;;;;;;;4952043;28;20042;-66
2021/12/23 11:48:16;;;;;;;48.30;17.67;;;;;;;;;;4952576;28;20337;-66
2021/12/23 11:50:54;;;;;;;50.42;17.02;;;;;;;;;;4952212;28;20022;-67
2021/12/23 11:53:21;;;;;;;45.42;18.23;;;;;;;;;;4952211;28;20328;-67
2021/12/23 11:55:47;;;;;;;43.10;16.23;;;;;;;;;;4951559;28;20456;-67
2021/12/23 11:58:14;;;;;;;46.78;17.77;;;;;;;;;;4950822;28;20353;-66
2021/12/23 12:00:43;;;;;;;43.03;17.10;;;;;;;;;;4951105;28;20388;-66
2021/12/23 12:03:10;;;;;;;41.35;15.95;;;;;;;;;;4953134;28;20326;-67
2021/12/23 12:05:36;;;;;;;34.53;14.30;;;;;;;;;;4952618;28;20389;-66
2021/12/23 12:08:10;;;;;;;42.42;16.48;;;;;;;;;;4950950;28;20140;-66
2021/12/23 12:10:37;;;;;;;40.58;15.93;;;;;;;;;;4952446;28;20456;-66
2021/12/23 12:13:07;;;;;;;41.03;16.38;;;;;;;;;;4951432;28;20444;-66
2021/12/23 12:15:38;;;;;;;36.88;15.63;;;;;;;;;;4951653;28;20053;-66
2021/12/23 12:18:06;;;;;;;39.60;14.88;;;;;;;;;;4952507;28;20441;-66
2021/12/23 12:20:55;;;;;;;38.42;14.88;;;;;;;;;;4952395;28;20340;-67
2021/12/23 12:23:22;;;;;;;39.40;14.25;;;;;;;;;;4951099;28;20372;-66
2021/12/23 12:26:03;;;;;;;30.75;13.68;;;;;;;;;;4952127;28;20421;-66
2021/12/23 12:28:38;;;;;;;35.80;14.50;;;;;;;;;;4952195;28;20026;-67
2021/12/23 12:31:19;;;;;;;37.72;15.05;;;;;;;;;;4952768;28;20336;-67
2021/12/23 12:33:55;;;;;;;35.03;14.60;;;;;;;;;;4950463;28;20099;-66
2021/12/23 12:36:21;;;;;;;35.35;14.60;;;;;;;;;;4950905;28;20038;-68
2021/12/23 12:39:14;;;;;;;37.25;13.23;;;;;;;;;;4950610;28;20056;-67
2021/12/23 12:41:39;;;;;;;33.17;12.88;;;;;;;;;;4950648;28;20485;-66
2021/12/23 12:47:05;;;;;;;37.78;13.77;;;;;;;;;;4951627;28;20400;-68
2021/12/23 12:49:43;;;;;;;37.33;13.40;;;;;;;;;;4951407;28;20445;-66
2021/12/23 12:52:23;;;;;;;31.63;12.60;;;;;;;;;;4951449;28;20092;-67
2021/12/23 12:54:49;;;;;;;34.17;13.80;;;;;;;;;;4952421;28;20457;-66
2021/12/23 12:57:15;;;;;;;30.30;13.32;;;;;;;;;;4951195;28;20476;-66
2021/12/23 12:59:44;;;;;;;31.83;12.88;;;;;;;;;;4950062;28;20330;-67
2021/12/23 13:02:19;;;;;;;38.17;13.57;;;;;;;;;;4950245;28;20419;-66
2021/12/23 13:05:04;;;;;;;32.10;12.43;;;;;;;;;;4949802;28;20468;-66
2021/12/23 13:07:35;;;;;;;33.17;12.40;;;;;;;;;;4951409;28;20429;-67
2021/12/23 13:10:12;;;;;;;32.92;12.50;;;;;;;;;;4952828;28;20448;-67
2021/12/23 13:12:50;;;;;;;28.92;12.30;;;;;;;;;;4950891;28;20395;-66
2021/12/23 13:15:17;;;;;;;30.40;12.30;;;;;;;;;;4950455;28;20133;-66
2021/12/23 13:17:59;;;;;;;35.25;11.45;;;;;;;;;;4951084;28;20471;-66
2021/12/23 13:20:44;;;;;;;33.03;12.93;;;;;;;;;;4950992;28;20430;-66
2021/12/23 13:23:18;;;;;;;29.70;11.25;;;;;;;;;;4952041;28;20333;-67
2021/12/23 13:25:46;;;;;;;26.25;11.80;;;;;;;;;;4951069;28;20634;-66
2021/12/23 13:28:19;;;;;;;27.17;11.00;;;;;;;;;;4951522;28;20345;-69
2021/12/23 13:30:44;;;;;;;30.90;10.95;;;;;;;;;;4950847;28;20116;-67
2021/12/23 13:33:12;;;;;;;25.63;11.38;;;;;;;;;;4950896;28;20105;-66
2021/12/23 13:35:38;;;;;;;24.15;10.13;;;;;;;;;;4952365;28;20018;-66
2021/12/23 13:38:04;;;;;;;27.75;12.45;;;;;;;;;;4951494;28;20440;-67
2021/12/23 13:40:38;;;;;;;30.10;11.25;;;;;;;;;;4950963;28;20517;-66
2021/12/23 13:43:03;;;;;;;26.38;11.55;;;;;;;;;;4950872;28;20108;-67
2021/12/23 13:45:30;;;;;;;29.42;11.15;;;;;;;;;;4950172;28;20451;-66
2021/12/23 13:47:57;;;;;;;28.75;11.90;;;;;;;;;;4948949;28;20423;-66
2021/12/23 13:50:25;;;;;;;28.25;10.95;;;;;;;;;;4950360;28;20471;-66
2021/12/23 13:52:51;;;;;;;28.95;11.43;;;;;;;;;;4950072;28;20038;-67
2021/12/23 13:55:22;;;;;;;21.60;11.15;;;;;;;;;;4949110;28;20057;-67
2021/12/23 13:57:51;;;;;;;27.75;12.18;;;;;;;;;;4947186;28;20572;-67
2021/12/23 14:00:22;;;;;;;28.65;11.50;;;;;;;;;;4951981;28;20345;-66
2021/12/23 14:02:52;;;;;;;25.30;10.75;;;;;;;;;;4965068;28;20322;-67
2021/12/23 14:05:17;;;;;;;27.92;10.82;;;;;;;;;;4948572;28;20460;-66
2021/12/23 14:07:46;;;;;;;28.23;10.07;;;;;;;;;;4948780;28;20432;-66
2021/12/23 14:10:14;;;;;;;21.42;11.05;;;;;;;;;;4948824;28;20408;-66
2021/12/23 14:12:46;;;;;;;24.80;11.07;;;;;;;;;;4950223;28;20346;-66
2021/12/23 14:15:16;;;;;;;25.90;10.45;;;;;;;;;;4951458;28;20448;-66
2021/12/23 14:17:45;;;;;;;33.15;10.90;;;;;;;;;;4949757;28;20435;-67
2021/12/23 14:23:13;;;;;;;22.73;10.05;;;;;;;;;;4949976;28;20108;-66
2021/12/23 14:25:47;;;;;;;26.65;10.40;;;;;;;;;;4949458;28;20388;-66
2021/12/23 14:28:19;;;;;;;28.52;11.82;;;;;;;;;;4950181;28;20353;-67
2021/12/23 14:30:52;;;;;;;24.02;9.93;;;;;;;;;;4951735;28;20437;-66
2021/12/23 14:33:21;;;;;;;24.35;11.02;;;;;;;;;;4950609;28;20375;-66
2021/12/23 14:36:07;;;;;;;25.23;9.98;;;;;;;;;;4948373;28;20436;-67
2021/12/23 14:38:41;;;;;;;25.45;10.65;;;;;;;;;;4948771;28;20441;-66
2021/12/23 14:41:11;;;;;;;26.20;10.40;;;;;;;;;;4948240;28;20417;-67
2021/12/23 14:43:57;;;;;;;26.00;9.93;;;;;;;;;;4950038;28;20350;-66
2021/12/23 14:46:38;;;;;;;25.45;9.75;;;;;;;;;;4949038;28;20424;-68
2021/12/23 14:51:32;;;;;;;23.92;11.10;;;;;;;;;;4949775;28;20334;-66
2021/12/23 14:54:08;;;;;;;23.30;9.50;;;;;;;;;;4949775;28;20026;-67
2021/12/23 14:56:34;;;;;;;23.13;10.50;;;;;;;;;;4949980;28;20441;-67
2021/12/23 14:59:17;;;;;;;24.38;10.05;;;;;;;;;;4949683;28;20445;-66
2021/12/23 15:01:48;;;;;;;33.78;11.10;;;;;;;;;;4952269;28;20515;-67
2021/12/23 15:04:18;;;;;;;23.48;10.75;;;;;;;;;;4952161;28;20461;-66
2021/12/23 15:06:58;;;;;;;26.00;9.80;;;;;;;;;;4954740;28;20523;-66
2021/12/23 15:09:23;;;;;;;21.92;10.13;;;;;;;;;;4953970;28;20377;-66
2021/12/23 15:11:49;;;;;;;22.25;10.48;;;;;;;;;;4952277;28;20030;-67
2021/12/23 15:14:16;;;;;;;24.70;9.98;;;;;;;;;;4952022;28;20342;-66
2021/12/23 15:16:42;;;;;;;22.58;11.52;;;;;;;;;;4953427;28;20317;-66
2021/12/23 15:19:24;;;;;;;25.75;10.93;;;;;;;;;;4953620;28;20353;-66
2021/12/23 15:21:52;;;;;;;24.25;10.15;;;;;;;;;;4953310;28;20048;-66
2021/12/23 15:24:26;;;;;;;25.30;10.70;;;;;;;;;;4953239;28;20140;-67
2021/12/23 15:26:56;;;;;;;22.73;10.07;;;;;;;;;;4953274;28;20424;-67
2021/12/23 15:29:38;;;;;;;25.55;10.18;;;;;;;;;;4951738;28;20515;-67
2021/12/23 15:32:30;;;;;;;19.85;8.30;;;;;;;;;;4953220;28;20467;-67
2021/12/23 15:35:01;;;;;;;20.92;9.38;;;;;;;;;;4952350;28;20045;-67
2021/12/23 15:37:29;;;;;;;21.23;10.00;;;;;;;;;;4951901;28;20451;-67